FW6905 Weather Reports


time (UTC)temp
F
wind
direction
speed
knots
gust
knots
rain 1hr
in
rain 24hr
in
rain mn
in
humidity
%
barometer
mb
20211025035505 52 15 8.7 15.6 0.00 0.00 0.00 31 1026.8
20211025035005 52 22 7.0 15.6 0.00 0.00 0.00 31 1026.8
20211025034505 52 29 4.3 9.6 0.00 0.00 0.00 31 1027.8
20211025034004 52 22 4.3 9.6 0.00 0.00 0.00 31 1027.8
20211025033505 51 28 3.5 8.7 0.00 0.00 0.00 32 1027.8
20211025033005 51 42 4.3 8.7 0.00 0.00 0.00 32 1027.8
20211025032505 52 34 4.3 11.3 0.00 0.00 0.00 32 1027.8
20211025032005 52 38 4.3 11.3 0.00 0.00 0.00 32 1027.8
20211025031504 51 41 3.5 8.7 0.00 0.00 0.00 32 1027.8
20211025031005 52 25 2.6 13.9 0.00 0.00 0.00 32 1027.8
20211025030504 52 26 8.7 13.9 0.00 0.00 0.00 31 1027.8
20211025030005 52 27 5.2 11.3 0.00 0.00 0.00 31 1027.8
20211025025504 52 11 4.3 11.3 0.00 0.00 0.00 31 1027.8
20211025025005 52 11 7.8 11.3 0.00 0.00 0.00 31 1027.8
20211025024504 52 33 5.2 10.4 0.00 0.00 0.00 31 1027.8
20211025024005 52 42 5.2 9.6 0.00 0.00 0.00 32 1027.8
20211025023506 52 33 4.3 11.3 0.00 0.00 0.00 32 1027.8
20211025023005 52 36 4.3 11.3 0.00 0.00 0.00 32 1027.8
20211025022505 52 34 5.2 9.6 0.00 0.00 0.00 32 1027.8
20211025022005 52 38 4.3 8.7 0.00 0.00 0.00 32 1027.8
20211025021504 52 26 3.5 13.0 0.00 0.00 0.00 32 1026.8
20211025021005 52 21 5.2 13.0 0.00 0.00 0.00 31 1026.8
20211025020506 52 39 4.3 8.7 0.00 0.00 0.00 32 1026.8
20211025020005 52 53 3.5 8.7 0.00 0.00 0.00 32 1027.8
20211025015505 52 49 3.5 7.0 0.00 0.00 0.00 31 1027.8
20211025015005 52 37 3.5 11.3 0.00 0.00 0.00 31 1027.8
20211025014505 52 40 6.1 11.3 0.00 0.00 0.00 31 1027.8
20211025014005 52 38 5.2 9.6 0.00 0.00 0.00 31 1027.8
20211025013505 53 24 4.3 14.8 0.00 0.00 0.00 31 1027.8
20211025013005 53 31 3.5 14.8 0.00 0.00 0.00 31 1027.8
20211025012505 53 46 7.0 12.2 0.00 0.00 0.00 31 1027.8
20211025012005 53 40 7.8 13.0 0.00 0.00 0.00 31 1027.8
20211025011504 53 34 4.3 13.0 0.00 0.00 0.00 31 1027.8
20211025011005 53 35 7.0 11.3 0.00 0.00 0.00 31 1027.8
20211025010505 53 24 3.5 14.8 0.00 0.00 0.00 31 1027.8
20211025010005 53 26 5.2 14.8 0.00 0.00 0.00 31 1028.8
20211025005505 53 25 7.0 13.9 0.00 0.00 0.00 31 1028.8
20211025005004 53 28 8.7 13.9 0.00 0.00 0.00 31 1028.8
20211025004504 53 44 9.6 13.0 0.00 0.00 0.00 31 1028.8
20211025004005 53 43 6.1 11.3 0.00 0.00 0.00 31 1028.8
20211025003504 53 38 6.1 11.3 0.00 0.00 0.00 31 1028.8
20211025003005 53 44 7.8 11.3 0.00 0.00 0.00 31 1028.8
20211025002505 53 45 6.1 13.9 0.00 0.00 0.00 31 1028.8
20211025002004 53 45 3.5 13.9 0.00 0.00 0.00 31 1028.8
20211025001505 53 57 7.0 11.3 0.00 0.00 0.00 31 1028.8
20211025001005 53 43 5.2 11.3 0.00 0.00 0.00 32 1028.8
20211025000504 53 23 6.1 13.0 0.00 0.00 0.00 31 1028.8
20211025000005 53 30 5.2 13.0 0.00 0.00 0.00 31 1028.8
20211024235505 53 52 6.1 14.8 0.00 0.00 0.00 31 1028.8
20211024235005 53 58 7.8 14.8 0.00 0.00 0.00 32 1028.8
20211024234505 53 61 7.0 11.3 0.00 0.00 0.00 32 1028.8
20211024234004 53 54 7.8 13.0 0.00 0.00 0.00 32 1028.8
20211024233505 53 39 4.3 13.0 0.00 0.00 0.00 32 1028.8
20211024233005 53 38 6.1 9.6 0.00 0.00 0.00 32 1028.8
20211024232504 53 52 6.1 8.7 0.00 0.00 0.00 32 1028.8
20211024232005 53 53 6.1 9.6 0.00 0.00 0.00 32 1028.8
20211024231504 53 52 5.2 9.6 0.00 0.00 0.00 32 1028.8
20211024231004 53 59 2.6 7.8 0.00 0.00 0.00 32 1028.8
20211024230505 53 52 6.1 11.3 0.00 0.00 0.00 32 1028.8
20211024230005 53 52 7.0 11.3 0.00 0.00 0.00 32 1028.8
20211024225505 53 57 7.8 11.3 0.00 0.00 0.00 31 1028.8
20211024225004 53 55 4.3 11.3 0.00 0.00 0.00 32 1028.8
20211024224504 53 58 7.0 11.3 0.00 0.00 0.00 32 1028.8
20211024224005 53 62 8.7 11.3 0.00 0.00 0.00 32 1028.8
20211024223504 53 67 7.8 11.3 0.00 0.00 0.00 32 1028.8
20211024223004 53 51 6.1 13.9 0.00 0.00 0.00 32 1029.8
20211024222505 53 50 5.2 13.9 0.00 0.00 0.00 32 1029.8
20211024222005 53 48 7.8 13.9 0.00 0.00 0.00 32 1029.8
20211024221505 53 42 8.7 13.9 0.00 0.00 0.00 32 1028.8
20211024221006 53 40 7.0 13.9 0.00 0.00 0.00 31 1028.8
20211024220506 53 48 7.8 14.8 0.00 0.00 0.00 32 1028.8
20211024220008 53 57 7.8 15.6 0.00 0.00 0.00 32 1029.8
20211024215506 53 49 9.6 15.6 0.00 0.00 0.00 32 1029.8
20211024215006 53 46 8.7 14.8 0.00 0.00 0.00 32 1029.8
20211024214506 53 48 7.0 14.8 0.00 0.00 0.00 32 1029.8
20211024214006 53 46 7.8 13.9 0.00 0.00 0.00 32 1029.8
20211024213506 53 48 11.3 14.8 0.00 0.00 0.00 32 1029.8
20211024213006 53 48 5.2 14.8 0.00 0.00 0.00 32 1029.8
20211024212506 53 52 5.2 13.0 0.00 0.00 0.00 32 1029.8
20211024212006 53 53 9.6 14.8 0.00 0.00 0.00 32 1029.8
20211024211506 53 43 10.4 14.8 0.00 0.00 0.00 32 1029.8
20211024211006 53 52 7.0 9.6 0.00 0.00 0.00 32 1029.8
20211024210506 53 54 5.2 10.4 0.00 0.00 0.00 32 1029.8
20211024210006 53 48 3.5 11.3 0.00 0.00 0.00 32 1029.8
20211024205506 53 52 8.7 11.3 0.00 0.00 0.00 32 1029.8
20211024205006 53 37 7.8 11.3 0.00 0.00 0.00 32 1029.8
20211024204506 53 28 5.2 11.3 0.00 0.00 0.00 32 1029.8
20211024204006 53 46 4.3 11.3 0.00 0.00 0.00 32 1029.8
20211024203505 53 50 5.2 11.3 0.00 0.00 0.00 32 1029.8
20211024203006 53 51 5.2 10.4 0.00 0.00 0.00 32 1030.9
20211024202505 53 44 2.6 10.4 0.00 0.00 0.00 32 1030.9
20211024202006 53 51 7.8 9.6 0.00 0.00 0.00 32 1030.9
20211024201506 54 66 7.0 11.3 0.00 0.00 0.00 31 1029.8
20211024201006 53 49 7.0 11.3 0.00 0.00 0.00 32 1029.8
20211024200506 54 44 4.3 11.3 0.00 0.00 0.00 31 1029.8
20211024200006 54 45 5.2 13.0 0.00 0.00 0.00 31 1029.8
20211024195506 54 38 7.0 13.9 0.00 0.00 0.00 31 1029.8
20211024195006 54 36 7.8 13.9 0.00 0.00 0.00 32 1029.8
20211024194506 54 36 5.2 13.0 0.00 0.00 0.00 31 1029.8
20211024194006 54 41 7.0 12.2 0.00 0.00 0.00 31 1029.8
20211024193506 54 44 6.1 12.2 0.00 0.00 0.00 32 1029.8
20211024193006 54 44 5.2 12.2 0.00 0.00 0.00 32 1029.8
20211024192505 54 49 8.7 13.0 0.00 0.00 0.00 32 1029.8
20211024192006 54 61 8.7 13.0 0.00 0.00 0.00 32 1029.8
20211024191506 54 69 7.0 11.3 0.00 0.00 0.00 33 1028.8
20211024191006 54 50 5.2 14.8 0.00 0.00 0.00 33 1028.8
20211024190506 54 35 7.0 14.8 0.00 0.00 0.00 32 1028.8
20211024190006 54 38 7.8 13.9 0.00 0.00 0.00 33 1029.8
20211024185506 54 37 3.5 13.0 0.00 0.00 0.00 33 1029.8
20211024185006 54 39 6.1 16.5 0.00 0.00 0.00 32 1029.8
20211024184506 54 54 5.2 16.5 0.00 0.00 0.00 33 1029.8
20211024184006 54 59 3.5 10.4 0.00 0.00 0.00 33 1029.8
20211024183505 54 53 6.1 13.0 0.00 0.00 0.00 33 1029.8
20211024183006 54 45 3.5 13.0 0.00 0.00 0.00 33 1028.8
20211024182506 54 30 6.1 11.3 0.00 0.00 0.00 33 1028.8
20211024182006 54 39 7.8 11.3 0.00 0.00 0.00 33 1028.8
20211024181506 54 41 3.5 9.6 0.00 0.00 0.00 33 1029.8
20211024181006 54 9 5.2 11.3 0.00 0.00 0.00 32 1029.8
20211024180506 54 24 4.3 11.3 0.00 0.00 0.00 32 1029.8
20211024180006 54 42 6.1 11.3 0.00 0.00 0.00 33 1029.8
20211024175506 55 44 6.1 13.9 0.00 0.00 0.00 33 1029.8
20211024175006 55 48 5.2 13.9 0.00 0.00 0.00 32 1029.8
20211024174506 54 34 3.5 9.6 0.00 0.00 0.00 33 1029.8
20211024174006 55 35 6.1 9.6 0.00 0.00 0.00 33 1029.8
20211024173505 55 40 3.5 10.4 0.00 0.00 0.00 33 1029.8
20211024173006 55 45 5.2 10.4 0.00 0.00 0.00 33 1029.8
20211024172506 55 44 5.2 10.4 0.00 0.00 0.00 33 1029.8
20211024172006 55 26 6.1 10.4 0.00 0.00 0.00 33 1029.8
20211024171506 55 32 5.2 9.6 0.00 0.00 0.00 32 1029.8
20211024171006 55 35 5.2 9.6 0.00 0.00 0.00 32 1029.8
20211024170505 55 36 3.5 9.6 0.00 0.00 0.00 33 1029.8
20211024170006 55 44 1.7 8.7 0.00 0.00 0.00 33 1029.8
20211024165506 55 51 2.6 11.3 0.00 0.00 0.00 33 1029.8
20211024165006 55 35 2.6 11.3 0.00 0.00 0.00 32 1029.8
20211024164507 56 32 5.2 11.3 0.00 0.00 0.00 32 1028.8
20211024164006 56 47 3.5 11.3 0.00 0.00 0.00 32 1028.8
20211024163505 55 52 5.2 8.7 0.00 0.00 0.00 32 1028.8
20211024163006 55 40 2.6 9.6 0.00 0.00 0.00 32 1029.8
20211024162506 56 34 4.3 9.6 0.00 0.00 0.00 32 1029.8
20211024162006 55 60 3.5 6.1 0.00 0.00 0.00 33 1029.8
20211024161506 55 97 1.7 7.0 0.00 0.00 0.00 33 1028.8
20211024161006 55 90 0.9 7.0 0.00 0.00 0.00 33 1028.8
20211024160506 56 84 5.2 6.1 0.00 0.00 0.00 32 1028.8
20211024160006 56 95 2.6 6.1 0.00 0.00 0.00 32 1028.8
20211024155505 56 121 0.9 4.3 0.00 0.00 0.00 32 1028.8
20211024155006 56 93 2.6 8.7 0.00 0.00 0.00 31 1028.8
20211024154505 57 51 3.5 8.7 0.00 0.00 0.00 30 1029.8
20211024154006 57 56 2.6 7.0 0.00 0.00 0.00 30 1029.8
20211024153506 57 69 3.5 7.0 0.00 0.00 0.00 30 1029.8
20211024153006 57 60 4.3 6.1 0.00 0.00 0.00 30 1029.8
20211024152506 58 45 5.2 7.8 0.00 0.00 0.00 30 1029.8
20211024152006 58 51 4.3 8.7 0.00 0.00 0.00 30 1029.8
20211024151506 58 61 6.1 8.7 0.00 0.00 0.00 29 1029.8
20211024151005 58 60 5.2 10.4 0.00 0.00 0.00 29 1029.8
20211024150506 58 53 3.5 10.4 0.00 0.00 0.00 29 1029.8
20211024150006 59 48 7.0 8.7 0.00 0.00 0.00 29 1029.8
20211024145506 59 44 5.2 8.7 0.00 0.00 0.00 29 1029.8
20211024145006 59 55 4.3 11.3 0.00 0.00 0.00 29 1029.8
20211024144505 59 62 4.3 12.2 0.00 0.00 0.00 29 1029.8
20211024144006 59 59 7.0 12.2 0.00 0.00 0.00 29 1029.8
20211024143506 59 62 2.6 8.7 0.00 0.00 0.00 29 1029.8
20211024143006 59 54 6.1 12.2 0.00 0.00 0.00 27 1029.8
20211024142506 60 56 5.2 12.2 0.00 0.00 0.00 27 1029.8
20211024142006 60 63 2.6 13.0 0.00 0.00 0.00 29 1029.8
20211024141506 60 52 7.8 13.0 0.00 0.00 0.00 27 1029.8
20211024141005 60 59 5.2 11.3 0.00 0.00 0.00 29 1029.8
20211024140506 60 84 7.8 9.6 0.00 0.00 0.00 29 1029.8
20211024140006 60 81 6.1 9.6 0.00 0.00 0.00 29 1028.8
20211024135506 60 57 4.3 8.7 0.00 0.00 0.00 29 1028.8
20211024135006 60 54 5.2 10.4 0.00 0.00 0.00 27 1028.8
20211024134505 60 59 3.5 11.3 0.00 0.00 0.00 29 1029.8
20211024134006 60 61 8.7 11.3 0.00 0.00 0.00 27 1029.8
20211024133506 61 70 5.2 8.7 0.00 0.00 0.00 29 1029.8
20211024133005 61 89 3.5 9.6 0.00 0.00 0.00 29 1029.8
20211024132506 61 76 5.2 9.6 0.00 0.00 0.00 29 1029.8
20211024132005 60 66 5.2 9.6 0.00 0.00 0.00 27 1029.8
20211024131506 60 71 5.2 9.6 0.00 0.00 0.00 29 1029.8
20211024131005 61 54 3.5 9.6 0.00 0.00 0.00 29 1029.8
20211024130505 60 56 7.0 14.8 0.00 0.00 0.00 29 1029.8
20211024130006 60 61 9.6 14.8 0.00 0.00 0.00 27 1030.9
20211024125506 61 66 5.2 9.6 0.00 0.00 0.00 29 1030.9
20211024125005 61 71 3.5 9.6 0.00 0.00 0.00 29 1030.9
20211024124506 61 78 7.8 10.4 0.00 0.00 0.00 26 1030.9
20211024124006 61 78 4.3 10.4 0.00 0.00 0.00 29 1030.9
20211024123505 61 73 5.2 8.7 0.00 0.00 0.00 29 1030.9
20211024123006 61 65 7.8 13.0 0.00 0.00 0.00 26 1030.9
20211024122506 61 59 7.8 13.0 0.00 0.00 0.00 27 1030.9
20211024122006 61 56 5.2 13.0 0.00 0.00 0.00 26 1030.9
20211024121506 61 66 7.8 12.2 0.00 0.00 0.00 26 1030.9
20211024121006 61 79 7.8 13.0 0.00 0.00 0.00 26 1030.9
20211024120506 61 77 9.6 13.9 0.00 0.00 0.00 26 1030.9
20211024120006 61 71 6.1 13.9 0.00 0.00 0.00 26 1031.9
20211024115505 61 63 8.7 11.3 0.00 0.00 0.00 29 1031.9
20211024115006 61 58 4.3 11.3 0.00 0.00 0.00 26 1031.9
20211024114505 61 67 9.6 13.0 0.00 0.00 0.00 26 1031.9
20211024114006 61 76 5.2 13.0 0.00 0.00 0.00 27 1031.9
20211024113506 61 87 5.2 9.6 0.00 0.00 0.00 29 1031.9
20211024113006 61 93 5.2 11.3 0.00 0.00 0.00 26 1031.9
20211024112506 61 89 3.5 11.3 0.00 0.00 0.00 29 1031.9
20211024112006 61 74 7.8 11.3 0.00 0.00 0.00 29 1031.9
20211024111506 61 75 5.2 11.3 0.00 0.00 0.00 29 1030.9
20211024111006 61 82 6.1 10.4 0.00 0.00 0.00 29 1030.9
20211024110505 60 71 5.2 11.3 0.00 0.00 0.00 29 1030.9
20211024110006 60 64 6.1 11.3 0.00 0.00 0.00 29 1031.9
20211024105506 60 63 7.0 11.3 0.00 0.00 0.00 29 1031.9
20211024105006 60 59 7.0 11.3 0.00 0.00 0.00 29 1031.9
20211024104505 60 61 5.2 8.7 0.00 0.00 0.00 27 1031.9
20211024104006 60 73 5.2 10.4 0.00 0.00 0.00 29 1031.9
20211024103505 60 64 7.8 10.4 0.00 0.00 0.00 29 1031.9
20211024103005 60 51 6.1 11.3 0.00 0.00 0.00 29 1031.9
20211024102506 60 50 5.2 11.3 0.00 0.00 0.00 29 1031.9
20211024102005 60 60 7.0 11.3 0.00 0.00 0.00 29 1031.9
20211024101506 60 58 6.1 11.3 0.00 0.00 0.00 30 1031.9
20211024101006 59 54 6.1 11.3 0.00 0.00 0.00 29 1031.9
20211024100506 60 67 3.5 10.4 0.00 0.00 0.00 29 1031.9
20211024100006 60 72 7.0 10.4 0.00 0.00 0.00 29 1031.9
20211024095505 59 62 5.2 9.6 0.00 0.00 0.00 29 1031.9
20211024095005 59 69 5.2 11.3 0.00 0.00 0.00 29 1031.9
20211024094506 59 75 7.8 11.3 0.00 0.00 0.00 29 1031.9
20211024094005 59 69 4.3 10.4 0.00 0.00 0.00 30 1031.9
20211024093505 59 95 5.2 11.3 0.00 0.00 0.00 29 1031.9
20211024093006 59 96 5.2 11.3 0.00 0.00 0.00 30 1031.9
20211024092506 59 85 5.2 11.3 0.00 0.00 0.00 31 1031.9
20211024092005 58 90 6.1 11.3 0.00 0.00 0.00 31 1031.9
20211024091506 58 89 5.2 11.3 0.00 0.00 0.00 31 1030.9
20211024091005 58 65 7.8 12.2 0.00 0.00 0.00 30 1030.9
20211024090508 58 53 4.3 12.2 0.00 0.00 0.00 31 1030.9
20211024090006 58 59 7.0 10.4 0.00 0.00 0.00 31 1031.9
20211024085506 58 66 5.2 8.7 0.00 0.00 0.00 31 1031.9
20211024085005 57 52 2.6 11.3 0.00 0.00 0.00 31 1031.9
20211024084506 57 44 5.2 13.0 0.00 0.00 0.00 31 1031.9
20211024084006 57 55 7.0 13.0 0.00 0.00 0.00 31 1031.9
20211024083505 57 69 5.2 13.0 0.00 0.00 0.00 31 1031.9
20211024083005 57 64 5.2 10.4 0.00 0.00 0.00 32 1031.9
20211024082506 57 51 7.0 10.4 0.00 0.00 0.00 32 1031.9
20211024082006 57 45 4.3 12.2 0.00 0.00 0.00 32 1031.9
20211024081505 56 46 4.3 12.2 0.00 0.00 0.00 32 1031.9
20211024081005 56 46 9.6 13.0 0.00 0.00 0.00 32 1031.9
20211024080505 56 52 5.2 13.0 0.00 0.00 0.00 31 1031.9
20211024080005 56 53 7.0 11.3 0.00 0.00 0.00 33 1032.9
20211024075506 56 57 5.2 12.2 0.00 0.00 0.00 33 1032.9
20211024075005 56 53 5.2 12.2 0.00 0.00 0.00 33 1032.9
20211024074505 56 52 6.1 11.3 0.00 0.00 0.00 34 1031.9
20211024074006 55 69 8.7 11.3 0.00 0.00 0.00 33 1031.9
20211024073505 55 56 5.2 13.9 0.00 0.00 0.00 34 1031.9
20211024073006 55 54 4.3 13.9 0.00 0.00 0.00 34 1030.9
20211024072505 55 52 7.8 12.2 0.00 0.00 0.00 36 1030.9
20211024072006 55 24 2.6 14.8 0.00 0.00 0.00 36 1030.9
20211024071506 54 26 3.5 14.8 0.00 0.00 0.00 36 1030.9
20211024071005 54 27 6.1 14.8 0.00 0.00 0.00 35 1030.9
20211024070505 54 44 2.6 13.9 0.00 0.00 0.00 36 1030.9
20211024070005 54 45 7.8 13.9 0.00 0.00 0.00 37 1030.9
20211024065505 54 55 7.8 13.0 0.00 0.00 0.00 36 1030.9
20211024065006 53 63 5.2 13.0 0.00 0.00 0.00 40 1030.9
20211024064505 53 56 7.8 13.0 0.00 0.00 0.00 39 1030.9
20211024064006 53 48 4.3 7.0 0.00 0.00 0.00 41 1030.9
20211024063506 53 41 3.5 7.8 0.00 0.00 0.00 41 1030.9
20211024063006 53 30 3.5 7.8 0.00 0.00 0.00 40 1030.9
20211024062506 53 33 2.6 10.4 0.00 0.00 0.00 41 1030.9
20211024062057 53 47 3.5 10.4 0.00 0.00 0.00 40 1030.9
20211024061507 53 46 4.3 12.2 0.00 0.00 0.00 40 1030.9
20211024061005 53 40 7.8 12.2 0.00 0.00 0.00 41 1030.9
20211024060505 53 36 3.5 10.4 0.00 0.00 0.00 41 1030.9
20211024060006 53 41 4.3 10.4 0.00 0.00 0.00 41 1029.8
20211024055505 53 33 5.2 14.8 0.00 0.00 0.00 41 1029.8
20211024055005 53 24 5.2 14.8 0.00 0.00 0.00 40 1029.8
20211024054506 53 26 4.3 8.7 0.00 0.00 0.00 41 1029.8
20211024054006 53 38 6.1 8.7 0.00 0.00 0.00 41 1029.8
20211024053505 53 41 3.5 11.3 0.00 0.00 0.00 41 1029.8
20211024053005 53 51 6.1 11.3 0.00 0.00 0.00 41 1029.8
20211024052506 53 60 6.1 13.0 0.00 0.00 0.00 41 1029.8
20211024052005 53 48 9.6 13.0 0.00 0.00 0.00 41 1029.8
20211024051506 53 50 0.9 12.2 0.00 0.00 0.00 41 1029.8
20211024051006 53 51 1.7 12.2 0.00 0.00 0.00 41 1029.8
20211024050505 53 57 3.5 11.3 0.00 0.00 0.00 41 1029.8
20211024050006 53 48 6.1 14.8 0.00 0.00 0.00 41 1029.8
20211024045505 53 41 7.0 14.8 0.00 0.00 0.00 41 1029.8
20211024045005 53 48 3.5 10.4 0.00 0.00 0.00 41 1029.8
20211024044506 53 53 5.2 9.6 0.00 0.00 0.00 41 1029.8
20211024044005 53 54 4.3 9.6 0.00 0.00 0.00 41 1029.8
20211024043505 53 34 5.2 14.8 0.00 0.00 0.00 41 1029.8
20211024043006 53 32 3.5 14.8 0.00 0.00 0.00 41 1029.8
20211024042505 53 48 7.0 11.3 0.00 0.00 0.00 40 1029.8
20211024042005 53 53 6.1 12.2 0.00 0.00 0.00 41 1029.8
20211024041505 53 41 4.3 14.8 0.00 0.00 0.00 41 1028.8
20211024041005 53 41 6.1 14.8 0.00 0.00 0.00 41 1028.8
20211024040506 53 41 7.8 13.9 0.00 0.00 0.00 42 1028.8
20211024040005 53 38 2.6 11.3 0.00 0.00 0.00 42 1030.9